Terminal Aerodrome Forecast
Issued by NWS

Home | Current Version | Previous Version | Text Only | Print | Product List | Glossary On
Versions: 1 2 3 4 5 6 7 8 9 10 11 12 13 14 15 16
000
FTUS45 KGJT 191120
TAFEGE
TAF
KEGE 191120Z 1912/2012 08005KT P6SM BKN070
     FM191600 23005KT P6SM VCSH SCT050 OVC070
      TEMPO 1916/1920 -SHRA BKN040
     FM200200 09005KT P6SM VCSH SCT050 BKN080
     FM200800 12003KT P6SM SCT080 BKN150
      AMD LTD TO CLD VIS AND WIND TIL 191400=

USA.gov is the U.S. government's official web portal to all federal, state and local government web resources and services.